sensor_id;sensor_type;location;lat;lon;timestamp;temperature;humidity
25332;DHT22;13284;52.748;13.452;2023-05-10T00:00:11;11.80;99.90
25332;DHT22;13284;52.748;13.452;2023-05-10T00:02:37;11.80;99.90
25332;DHT22;13284;52.748;13.452;2023-05-10T00:05:03;11.70;99.90
25332;DHT22;13284;52.748;13.452;2023-05-10T00:07:28;11.70;99.90
25332;DHT22;13284;52.748;13.452;2023-05-10T00:09:54;11.70;99.90
25332;DHT22;13284;52.748;13.452;2023-05-10T00:12:19;11.70;99.90
25332;DHT22;13284;52.748;13.452;2023-05-10T00:14:45;11.60;99.90
25332;DHT22;13284;52.748;13.452;2023-05-10T00:17:10;11.60;99.90
25332;DHT22;13284;52.748;13.452;2023-05-10T00:19:36;11.60;99.90
25332;DHT22;13284;52.748;13.452;2023-05-10T00:22:02;11.60;99.90
25332;DHT22;13284;52.748;13.452;2023-05-10T00:24:27;11.60;99.90
25332;DHT22;13284;52.748;13.452;2023-05-10T00:26:53;11.50;99.90
25332;DHT22;13284;52.748;13.452;2023-05-10T00:29:18;11.60;99.90
25332;DHT22;13284;52.748;13.452;2023-05-10T00:31:44;11.50;99.90
25332;DHT22;13284;52.748;13.452;2023-05-10T00:34:25;11.50;99.90
25332;DHT22;13284;52.748;13.452;2023-05-10T00:36:51;11.50;99.90
25332;DHT22;13284;52.748;13.452;2023-05-10T00:39:16;11.50;99.90
25332;DHT22;13284;52.748;13.452;2023-05-10T00:41:42;11.50;99.90
25332;DHT22;13284;52.748;13.452;2023-05-10T00:44:07;11.50;99.90
25332;DHT22;13284;52.748;13.452;2023-05-10T00:46:33;11.50;99.90
25332;DHT22;13284;52.748;13.452;2023-05-10T00:48:58;11.40;99.90
25332;DHT22;13284;52.748;13.452;2023-05-10T00:51:24;11.40;99.90
25332;DHT22;13284;52.748;13.452;2023-05-10T00:53:51;11.40;99.90
25332;DHT22;13284;52.748;13.452;2023-05-10T00:56:17;11.40;99.90
25332;DHT22;13284;52.748;13.452;2023-05-10T00:58:42;11.30;99.90
25332;DHT22;13284;52.748;13.452;2023-05-10T01:01:09;11.40;99.90
25332;DHT22;13284;52.748;13.452;2023-05-10T01:03:36;11.40;99.90
25332;DHT22;13284;52.748;13.452;2023-05-10T01:06:02;11.30;99.90
25332;DHT22;13284;52.748;13.452;2023-05-10T01:08:28;11.30;99.90
25332;DHT22;13284;52.748;13.452;2023-05-10T01:10:54;11.30;99.90
25332;DHT22;13284;52.748;13.452;2023-05-10T01:13:32;11.30;99.90
25332;DHT22;13284;52.748;13.452;2023-05-10T01:15:59;11.20;99.90
25332;DHT22;13284;52.748;13.452;2023-05-10T01:18:27;11.20;99.90
25332;DHT22;13284;52.748;13.452;2023-05-10T01:21:04;11.30;99.90
25332;DHT22;13284;52.748;13.452;2023-05-10T01:35:00;11.10;99.90
25332;DHT22;13284;52.748;13.452;2023-05-10T01:37:46;11.00;99.90
25332;DHT22;13284;52.748;13.452;2023-05-10T01:40:25;11.00;99.90
25332;DHT22;13284;52.748;13.452;2023-05-10T01:42:56;11.00;99.90
25332;DHT22;13284;52.748;13.452;2023-05-10T01:45:33;10.90;99.90
25332;DHT22;13284;52.748;13.452;2023-05-10T01:48:06;10.90;99.90
25332;DHT22;13284;52.748;13.452;2023-05-10T01:50:34;10.90;99.90
25332;DHT22;13284;52.748;13.452;2023-05-10T01:53:02;10.90;99.90
25332;DHT22;13284;52.748;13.452;2023-05-10T01:55:32;10.80;99.90
25332;DHT22;13284;52.748;13.452;2023-05-10T01:58:07;10.80;99.90
25332;DHT22;13284;52.748;13.452;2023-05-10T02:00:34;10.80;99.90
25332;DHT22;13284;52.748;13.452;2023-05-10T02:03:04;10.80;99.90
25332;DHT22;13284;52.748;13.452;2023-05-10T02:05:32;10.80;99.90
25332;DHT22;13284;52.748;13.452;2023-05-10T02:07:59;10.80;99.90
25332;DHT22;13284;52.748;13.452;2023-05-10T02:10:27;10.80;99.90
25332;DHT22;13284;52.748;13.452;2023-05-10T02:12:54;10.80;99.90
25332;DHT22;13284;52.748;13.452;2023-05-10T02:15:23;10.70;99.90
25332;DHT22;13284;52.748;13.452;2023-05-10T02:17:49;10.70;99.90
25332;DHT22;13284;52.748;13.452;2023-05-10T02:20:16;10.70;99.90
25332;DHT22;13284;52.748;13.452;2023-05-10T02:22:42;10.70;99.90
25332;DHT22;13284;52.748;13.452;2023-05-10T02:25:08;10.70;99.90
25332;DHT22;13284;52.748;13.452;2023-05-10T02:27:36;10.70;99.90
25332;DHT22;13284;52.748;13.452;2023-05-10T02:30:03;10.70;99.90
25332;DHT22;13284;52.748;13.452;2023-05-10T02:32:29;10.60;99.90
25332;DHT22;13284;52.748;13.452;2023-05-10T02:34:56;10.60;99.90
25332;DHT22;13284;52.748;13.452;2023-05-10T02:37:22;10.60;99.90
25332;DHT22;13284;52.748;13.452;2023-05-10T02:39:50;10.60;99.90
25332;DHT22;13284;52.748;13.452;2023-05-10T02:42:19;10.60;99.90
25332;DHT22;13284;52.748;13.452;2023-05-10T02:44:47;10.60;99.90
25332;DHT22;13284;52.748;13.452;2023-05-10T02:47:13;10.60;99.90
25332;DHT22;13284;52.748;13.452;2023-05-10T02:49:38;10.60;99.90
25332;DHT22;13284;52.748;13.452;2023-05-10T02:52:05;10.50;99.90
25332;DHT22;13284;52.748;13.452;2023-05-10T02:54:34;10.50;99.90
25332;DHT22;13284;52.748;13.452;2023-05-10T02:57:04;10.50;99.90
25332;DHT22;13284;52.748;13.452;2023-05-10T02:59:30;10.50;99.90
25332;DHT22;13284;52.748;13.452;2023-05-10T03:01:58;10.50;99.90
25332;DHT22;13284;52.748;13.452;2023-05-10T03:04:23;10.50;99.90
25332;DHT22;13284;52.748;13.452;2023-05-10T03:06:49;10.50;99.90
25332;DHT22;13284;52.748;13.452;2023-05-10T03:09:15;10.50;99.90
25332;DHT22;13284;52.748;13.452;2023-05-10T03:11:55;10.50;99.90
25332;DHT22;13284;52.748;13.452;2023-05-10T03:19:56;10.50;99.90
25332;DHT22;13284;52.748;13.452;2023-05-10T03:22:42;10.40;99.90
25332;DHT22;13284;52.748;13.452;2023-05-10T03:25:11;10.40;99.90
25332;DHT22;13284;52.748;13.452;2023-05-10T03:27:39;10.40;99.90
25332;DHT22;13284;52.748;13.452;2023-05-10T03:30:08;10.40;99.90
25332;DHT22;13284;52.748;13.452;2023-05-10T03:32:34;10.40;99.90
25332;DHT22;13284;52.748;13.452;2023-05-10T03:35:00;10.50;99.90
25332;DHT22;13284;52.748;13.452;2023-05-10T03:37:25;10.40;99.90
25332;DHT22;13284;52.748;13.452;2023-05-10T03:39:51;10.40;99.90
25332;DHT22;13284;52.748;13.452;2023-05-10T03:42:16;10.40;99.90
25332;DHT22;13284;52.748;13.452;2023-05-10T03:44:43;10.40;99.90
25332;DHT22;13284;52.748;13.452;2023-05-10T03:47:08;10.40;99.90
25332;DHT22;13284;52.748;13.452;2023-05-10T03:49:34;10.40;99.90
25332;DHT22;13284;52.748;13.452;2023-05-10T03:51:59;10.40;99.90
25332;DHT22;13284;52.748;13.452;2023-05-10T03:54:25;10.40;99.90
25332;DHT22;13284;52.748;13.452;2023-05-10T03:56:51;10.40;99.90
25332;DHT22;13284;52.748;13.452;2023-05-10T03:59:16;10.40;99.90
25332;DHT22;13284;52.748;13.452;2023-05-10T04:01:42;10.50;99.90
25332;DHT22;13284;52.748;13.452;2023-05-10T04:04:07;10.50;99.90
25332;DHT22;13284;52.748;13.452;2023-05-10T04:06:33;10.50;99.90
25332;DHT22;13284;52.748;13.452;2023-05-10T04:08:58;10.50;99.90
25332;DHT22;13284;52.748;13.452;2023-05-10T04:11:25;10.50;99.90
25332;DHT22;13284;52.748;13.452;2023-05-10T04:13:51;10.60;99.90
25332;DHT22;13284;52.748;13.452;2023-05-10T04:16:16;10.60;99.90
25332;DHT22;13284;52.748;13.452;2023-05-10T04:18:42;10.60;99.90
25332;DHT22;13284;52.748;13.452;2023-05-10T04:21:12;10.70;99.90
25332;DHT22;13284;52.748;13.452;2023-05-10T04:23:38;10.70;99.90
25332;DHT22;13284;52.748;13.452;2023-05-10T04:26:04;10.70;99.90
25332;DHT22;13284;52.748;13.452;2023-05-10T04:28:29;10.90;99.90
25332;DHT22;13284;52.748;13.452;2023-05-10T04:31:08;10.90;99.90
25332;DHT22;13284;52.748;13.452;2023-05-10T04:33:35;11.00;99.90
25332;DHT22;13284;52.748;13.452;2023-05-10T04:36:01;11.10;99.90
25332;DHT22;13284;52.748;13.452;2023-05-10T04:38:27;11.20;99.90
25332;DHT22;13284;52.748;13.452;2023-05-10T04:40:53;11.20;99.90
25332;DHT22;13284;52.748;13.452;2023-05-10T04:43:18;11.20;99.90
25332;DHT22;13284;52.748;13.452;2023-05-10T04:45:44;11.30;99.90
25332;DHT22;13284;52.748;13.452;2023-05-10T04:48:09;11.40;99.90
25332;DHT22;13284;52.748;13.452;2023-05-10T04:50:35;11.40;99.90
25332;DHT22;13284;52.748;13.452;2023-05-10T04:53:00;11.50;99.90
25332;DHT22;13284;52.748;13.452;2023-05-10T04:55:29;11.50;99.90
25332;DHT22;13284;52.748;13.452;2023-05-10T04:57:54;11.60;99.90
25332;DHT22;13284;52.748;13.452;2023-05-10T05:00:22;11.60;99.90
25332;DHT22;13284;52.748;13.452;2023-05-10T05:02:48;11.80;99.90
25332;DHT22;13284;52.748;13.452;2023-05-10T05:05:14;11.90;99.90
25332;DHT22;13284;52.748;13.452;2023-05-10T05:07:39;12.00;99.90
25332;DHT22;13284;52.748;13.452;2023-05-10T05:10:08;12.20;99.90
25332;DHT22;13284;52.748;13.452;2023-05-10T05:12:34;12.30;99.90
25332;DHT22;13284;52.748;13.452;2023-05-10T05:15:01;12.40;99.90
25332;DHT22;13284;52.748;13.452;2023-05-10T05:17:26;12.40;99.90
25332;DHT22;13284;52.748;13.452;2023-05-10T05:19:52;12.50;99.90
25332;DHT22;13284;52.748;13.452;2023-05-10T05:22:18;12.60;99.90
25332;DHT22;13284;52.748;13.452;2023-05-10T05:24:44;12.70;99.90
25332;DHT22;13284;52.748;13.452;2023-05-10T05:27:10;12.90;99.90
25332;DHT22;13284;52.748;13.452;2023-05-10T05:29:36;13.00;99.90
25332;DHT22;13284;52.748;13.452;2023-05-10T05:32:01;13.10;99.90
25332;DHT22;13284;52.748;13.452;2023-05-10T05:34:27;13.20;99.90
25332;DHT22;13284;52.748;13.452;2023-05-10T05:36:52;13.20;99.90
25332;DHT22;13284;52.748;13.452;2023-05-10T05:39:18;13.40;99.90
25332;DHT22;13284;52.748;13.452;2023-05-10T05:41:43;13.40;99.90
25332;DHT22;13284;52.748;13.452;2023-05-10T05:44:09;13.50;99.90
25332;DHT22;13284;52.748;13.452;2023-05-10T05:46:35;13.60;99.90
25332;DHT22;13284;52.748;13.452;2023-05-10T05:49:00;13.60;99.90
25332;DHT22;13284;52.748;13.452;2023-05-10T05:51:26;13.60;99.90
25332;DHT22;13284;52.748;13.452;2023-05-10T05:53:52;13.70;99.90
25332;DHT22;13284;52.748;13.452;2023-05-10T05:56:18;13.70;99.90
25332;DHT22;13284;52.748;13.452;2023-05-10T05:58:52;13.90;99.90
25332;DHT22;13284;52.748;13.452;2023-05-10T06:01:17;13.80;99.90
25332;DHT22;13284;52.748;13.452;2023-05-10T06:03:43;13.90;99.90
25332;DHT22;13284;52.748;13.452;2023-05-10T06:06:08;13.80;99.90
25332;DHT22;13284;52.748;13.452;2023-05-10T06:08:34;13.90;99.90
25332;DHT22;13284;52.748;13.452;2023-05-10T06:11:00;14.00;99.90
25332;DHT22;13284;52.748;13.452;2023-05-10T06:13:26;14.10;99.90
25332;DHT22;13284;52.748;13.452;2023-05-10T06:16:00;14.10;99.90
25332;DHT22;13284;52.748;13.452;2023-05-10T06:18:26;14.20;99.90
25332;DHT22;13284;52.748;13.452;2023-05-10T06:20:51;14.30;99.90
25332;DHT22;13284;52.748;13.452;2023-05-10T06:23:17;14.30;99.90
25332;DHT22;13284;52.748;13.452;2023-05-10T06:25:42;14.40;99.90
25332;DHT22;13284;52.748;13.452;2023-05-10T06:28:08;14.50;99.90
25332;DHT22;13284;52.748;13.452;2023-05-10T06:30:33;14.60;99.90
25332;DHT22;13284;52.748;13.452;2023-05-10T06:33:00;14.70;99.90
25332;DHT22;13284;52.748;13.452;2023-05-10T06:35:26;14.80;99.90
25332;DHT22;13284;52.748;13.452;2023-05-10T06:37:51;14.80;99.90
25332;DHT22;13284;52.748;13.452;2023-05-10T06:40:17;14.80;99.90
25332;DHT22;13284;52.748;13.452;2023-05-10T06:42:43;14.90;99.90
25332;DHT22;13284;52.748;13.452;2023-05-10T06:45:10;14.90;99.90
25332;DHT22;13284;52.748;13.452;2023-05-10T06:47:38;15.10;99.90
25332;DHT22;13284;52.748;13.452;2023-05-10T06:50:04;15.00;99.90
25332;DHT22;13284;52.748;13.452;2023-05-10T06:52:30;15.10;99.90
25332;DHT22;13284;52.748;13.452;2023-05-10T06:54:55;15.00;99.90
25332;DHT22;13284;52.748;13.452;2023-05-10T06:57:21;15.10;99.90
25332;DHT22;13284;52.748;13.452;2023-05-10T06:59:46;15.20;99.90
25332;DHT22;13284;52.748;13.452;2023-05-10T07:02:12;15.30;99.90
25332;DHT22;13284;52.748;13.452;2023-05-10T07:04:38;15.40;99.90
25332;DHT22;13284;52.748;13.452;2023-05-10T07:07:03;15.60;99.90
25332;DHT22;13284;52.748;13.452;2023-05-10T07:09:29;15.50;99.90
25332;DHT22;13284;52.748;13.452;2023-05-10T07:11:55;15.50;99.90
25332;DHT22;13284;52.748;13.452;2023-05-10T07:14:21;15.60;99.90
25332;DHT22;13284;52.748;13.452;2023-05-10T07:16:46;15.60;99.90
25332;DHT22;13284;52.748;13.452;2023-05-10T07:19:12;15.60;99.90
25332;DHT22;13284;52.748;13.452;2023-05-10T07:21:37;15.70;99.90
25332;DHT22;13284;52.748;13.452;2023-05-10T07:24:08;15.90;99.90
25332;DHT22;13284;52.748;13.452;2023-05-10T07:26:34;16.00;99.90
25332;DHT22;13284;52.748;13.452;2023-05-10T07:28:59;16.10;99.90
25332;DHT22;13284;52.748;13.452;2023-05-10T07:31:25;16.30;99.90
25332;DHT22;13284;52.748;13.452;2023-05-10T07:33:50;16.40;99.90
25332;DHT22;13284;52.748;13.452;2023-05-10T07:36:16;16.50;99.90
25332;DHT22;13284;52.748;13.452;2023-05-10T07:38:44;16.50;99.90
25332;DHT22;13284;52.748;13.452;2023-05-10T07:41:11;16.50;99.90
25332;DHT22;13284;52.748;13.452;2023-05-10T07:43:37;16.50;99.90
25332;DHT22;13284;52.748;13.452;2023-05-10T07:46:02;16.60;99.90
25332;DHT22;13284;52.748;13.452;2023-05-10T07:48:28;16.60;99.90
25332;DHT22;13284;52.748;13.452;2023-05-10T07:50:53;16.70;99.90
25332;DHT22;13284;52.748;13.452;2023-05-10T07:53:19;16.90;99.90
25332;DHT22;13284;52.748;13.452;2023-05-10T07:55:50;17.10;99.90
25332;DHT22;13284;52.748;13.452;2023-05-10T07:58:15;17.40;99.90
25332;DHT22;13284;52.748;13.452;2023-05-10T08:00:41;17.60;99.90
25332;DHT22;13284;52.748;13.452;2023-05-10T08:03:06;17.80;99.90
25332;DHT22;13284;52.748;13.452;2023-05-10T08:05:35;17.90;99.90
25332;DHT22;13284;52.748;13.452;2023-05-10T08:08:00;18.00;99.90
25332;DHT22;13284;52.748;13.452;2023-05-10T08:10:26;18.30;99.90
25332;DHT22;13284;52.748;13.452;2023-05-10T08:12:51;18.70;99.70
25332;DHT22;13284;52.748;13.452;2023-05-10T08:15:17;18.80;99.20
25332;DHT22;13284;52.748;13.452;2023-05-10T08:17:42;19.30;99.30
25332;DHT22;13284;52.748;13.452;2023-05-10T08:20:08;19.70;98.40
25332;DHT22;13284;52.748;13.452;2023-05-10T08:22:37;19.60;98.00
25332;DHT22;13284;52.748;13.452;2023-05-10T08:25:03;19.80;98.10
25332;DHT22;13284;52.748;13.452;2023-05-10T08:27:28;20.40;97.70
25332;DHT22;13284;52.748;13.452;2023-05-10T08:29:54;20.20;97.10
25332;DHT22;13284;52.748;13.452;2023-05-10T08:32:22;20.10;96.60
25332;DHT22;13284;52.748;13.452;2023-05-10T08:34:48;20.20;97.00
25332;DHT22;13284;52.748;13.452;2023-05-10T08:37:13;20.30;96.20
25332;DHT22;13284;52.748;13.452;2023-05-10T08:39:39;20.50;96.20
25332;DHT22;13284;52.748;13.452;2023-05-10T08:42:05;20.90;96.30
25332;DHT22;13284;52.748;13.452;2023-05-10T08:44:32;20.90;95.30
25332;DHT22;13284;52.748;13.452;2023-05-10T08:46:59;20.90;95.10
25332;DHT22;13284;52.748;13.452;2023-05-10T08:49:27;21.10;95.30
25332;DHT22;13284;52.748;13.452;2023-05-10T08:51:57;21.30;95.30
25332;DHT22;13284;52.748;13.452;2023-05-10T08:54:24;21.50;94.40
25332;DHT22;13284;52.748;13.452;2023-05-10T08:56:50;21.80;95.10
25332;DHT22;13284;52.748;13.452;2023-05-10T08:59:16;22.10;94.60
25332;DHT22;13284;52.748;13.452;2023-05-10T09:01:42;22.50;93.80
25332;DHT22;13284;52.748;13.452;2023-05-10T09:04:09;22.70;94.20
25332;DHT22;13284;52.748;13.452;2023-05-10T09:06:35;22.90;93.00
25332;DHT22;13284;52.748;13.452;2023-05-10T09:09:01;22.80;93.30
25332;DHT22;13284;52.748;13.452;2023-05-10T09:11:27;22.50;92.80
25332;DHT22;13284;52.748;13.452;2023-05-10T09:13:54;22.80;92.60
25332;DHT22;13284;52.748;13.452;2023-05-10T09:16:21;22.50;93.20
25332;DHT22;13284;52.748;13.452;2023-05-10T09:18:46;22.70;93.20
25332;DHT22;13284;52.748;13.452;2023-05-10T09:21:12;23.10;92.90
25332;DHT22;13284;52.748;13.452;2023-05-10T09:23:43;23.50;91.80
25332;DHT22;13284;52.748;13.452;2023-05-10T09:26:08;22.80;91.60
25332;DHT22;13284;52.748;13.452;2023-05-10T09:28:49;22.60;92.40
25332;DHT22;13284;52.748;13.452;2023-05-10T09:31:15;22.90;92.00
25332;DHT22;13284;52.748;13.452;2023-05-10T09:33:47;23.10;92.20
25332;DHT22;13284;52.748;13.452;2023-05-10T09:36:13;23.50;91.50
25332;DHT22;13284;52.748;13.452;2023-05-10T09:38:49;24.10;91.80
25332;DHT22;13284;52.748;13.452;2023-05-10T09:41:20;24.00;90.80
25332;DHT22;13284;52.748;13.452;2023-05-10T09:43:47;24.70;90.40
25332;DHT22;13284;52.748;13.452;2023-05-10T09:46:13;24.80;90.40
25332;DHT22;13284;52.748;13.452;2023-05-10T09:48:42;24.10;90.10
25332;DHT22;13284;52.748;13.452;2023-05-10T09:51:08;23.90;90.20
25332;DHT22;13284;52.748;13.452;2023-05-10T09:53:33;24.20;90.20
25332;DHT22;13284;52.748;13.452;2023-05-10T09:55:59;24.10;90.00
25332;DHT22;13284;52.748;13.452;2023-05-10T09:58:25;24.50;89.80
25332;DHT22;13284;52.748;13.452;2023-05-10T10:00:50;24.10;89.60
25332;DHT22;13284;52.748;13.452;2023-05-10T10:03:20;23.60;89.70
25332;DHT22;13284;52.748;13.452;2023-05-10T10:05:47;23.60;90.00
25332;DHT22;13284;52.748;13.452;2023-05-10T10:08:13;23.90;90.40
25332;DHT22;13284;52.748;13.452;2023-05-10T10:10:39;24.20;90.30
25332;DHT22;13284;52.748;13.452;2023-05-10T10:13:11;24.70;89.20
25332;DHT22;13284;52.748;13.452;2023-05-10T10:15:37;24.50;88.30
25332;DHT22;13284;52.748;13.452;2023-05-10T10:18:03;25.10;88.40
25332;DHT22;13284;52.748;13.452;2023-05-10T10:20:30;24.90;88.40
25332;DHT22;13284;52.748;13.452;2023-05-10T10:22:55;25.00;86.30
25332;DHT22;13284;52.748;13.452;2023-05-10T10:25:21;24.90;87.20
25332;DHT22;13284;52.748;13.452;2023-05-10T10:33:18;25.60;85.60
25332;DHT22;13284;52.748;13.452;2023-05-10T10:35:54;26.00;84.90
25332;DHT22;13284;52.748;13.452;2023-05-10T10:38:20;27.30;85.90
25332;DHT22;13284;52.748;13.452;2023-05-10T10:41:02;26.60;84.30
25332;DHT22;13284;52.748;13.452;2023-05-10T10:43:28;25.90;83.70
25332;DHT22;13284;52.748;13.452;2023-05-10T10:46:15;25.40;85.60
25332;DHT22;13284;52.748;13.452;2023-05-10T10:48:48;25.50;86.40
25332;DHT22;13284;52.748;13.452;2023-05-10T10:51:14;26.00;85.20
25332;DHT22;13284;52.748;13.452;2023-05-10T10:53:40;26.00;83.90
25332;DHT22;13284;52.748;13.452;2023-05-10T10:56:11;25.70;82.70
25332;DHT22;13284;52.748;13.452;2023-05-10T10:58:41;26.40;84.10
25332;DHT22;13284;52.748;13.452;2023-05-10T11:01:14;26.30;83.90
25332;DHT22;13284;52.748;13.452;2023-05-10T11:03:41;25.90;83.20
25332;DHT22;13284;52.748;13.452;2023-05-10T11:06:29;26.40;83.20
25332;DHT22;13284;52.748;13.452;2023-05-10T11:08:55;26.00;83.40
25332;DHT22;13284;52.748;13.452;2023-05-10T11:11:23;26.50;81.90
25332;DHT22;13284;52.748;13.452;2023-05-10T11:13:49;26.60;83.00
25332;DHT22;13284;52.748;13.452;2023-05-10T11:16:46;26.10;82.10
25332;DHT22;13284;52.748;13.452;2023-05-10T11:19:13;25.90;83.00
25332;DHT22;13284;52.748;13.452;2023-05-10T11:24:30;26.30;82.60
25332;DHT22;13284;52.748;13.452;2023-05-10T11:26:56;25.90;83.40
25332;DHT22;13284;52.748;13.452;2023-05-10T11:29:22;26.40;82.80
25332;DHT22;13284;52.748;13.452;2023-05-10T11:31:49;26.30;80.80
25332;DHT22;13284;52.748;13.452;2023-05-10T11:34:31;26.70;82.20
25332;DHT22;13284;52.748;13.452;2023-05-10T11:36:59;27.30;81.00
25332;DHT22;13284;52.748;13.452;2023-05-10T11:39:30;27.50;81.30
25332;DHT22;13284;52.748;13.452;2023-05-10T11:41:56;27.50;81.90
25332;DHT22;13284;52.748;13.452;2023-05-10T11:44:22;28.00;78.00
25332;DHT22;13284;52.748;13.452;2023-05-10T11:46:49;27.10;77.90
25332;DHT22;13284;52.748;13.452;2023-05-10T11:49:14;26.90;76.80
25332;DHT22;13284;52.748;13.452;2023-05-10T11:51:40;27.00;77.30
25332;DHT22;13284;52.748;13.452;2023-05-10T11:54:08;26.90;78.10
25332;DHT22;13284;52.748;13.452;2023-05-10T11:56:34;27.10;79.90
25332;DHT22;13284;52.748;13.452;2023-05-10T11:59:00;27.20;77.40
25332;DHT22;13284;52.748;13.452;2023-05-10T12:01:27;27.70;76.80
25332;DHT22;13284;52.748;13.452;2023-05-10T12:03:55;28.10;76.60
25332;DHT22;13284;52.748;13.452;2023-05-10T12:06:27;28.40;76.40
25332;DHT22;13284;52.748;13.452;2023-05-10T12:08:53;28.80;74.70
25332;DHT22;13284;52.748;13.452;2023-05-10T12:11:19;28.40;75.90
25332;DHT22;13284;52.748;13.452;2023-05-10T12:13:47;27.50;75.10
25332;DHT22;13284;52.748;13.452;2023-05-10T12:16:17;27.70;75.60
25332;DHT22;13284;52.748;13.452;2023-05-10T12:18:43;28.20;73.90
25332;DHT22;13284;52.748;13.452;2023-05-10T12:21:10;27.60;75.50
25332;DHT22;13284;52.748;13.452;2023-05-10T12:23:37;28.00;74.60
25332;DHT22;13284;52.748;13.452;2023-05-10T12:26:03;28.30;76.00
25332;DHT22;13284;52.748;13.452;2023-05-10T12:28:32;27.90;77.40
25332;DHT22;13284;52.748;13.452;2023-05-10T12:30:59;27.90;77.00
25332;DHT22;13284;52.748;13.452;2023-05-10T12:33:25;27.70;74.10
25332;DHT22;13284;52.748;13.452;2023-05-10T12:35:52;27.80;74.60
25332;DHT22;13284;52.748;13.452;2023-05-10T12:40:50;27.70;76.00
25332;DHT22;13284;52.748;13.452;2023-05-10T12:43:16;28.40;75.80
25332;DHT22;13284;52.748;13.452;2023-05-10T12:45:41;27.90;74.10
25332;DHT22;13284;52.748;13.452;2023-05-10T12:48:07;28.20;75.50
25332;DHT22;13284;52.748;13.452;2023-05-10T12:50:32;27.70;76.10
25332;DHT22;13284;52.748;13.452;2023-05-10T12:52:58;27.40;75.70
25332;DHT22;13284;52.748;13.452;2023-05-10T12:55:23;27.30;75.90
25332;DHT22;13284;52.748;13.452;2023-05-10T12:57:49;28.00;75.70
25332;DHT22;13284;52.748;13.452;2023-05-10T13:00:15;27.90;76.40
25332;DHT22;13284;52.748;13.452;2023-05-10T13:02:40;28.40;75.90
25332;DHT22;13284;52.748;13.452;2023-05-10T13:05:06;28.50;76.40
25332;DHT22;13284;52.748;13.452;2023-05-10T13:07:32;28.00;76.00
25332;DHT22;13284;52.748;13.452;2023-05-10T13:09:57;28.70;75.00
25332;DHT22;13284;52.748;13.452;2023-05-10T13:12:23;27.80;74.60
25332;DHT22;13284;52.748;13.452;2023-05-10T13:14:48;27.10;76.80
25332;DHT22;13284;52.748;13.452;2023-05-10T13:17:14;27.00;78.20
25332;DHT22;13284;52.748;13.452;2023-05-10T13:19:39;26.30;77.90
25332;DHT22;13284;52.748;13.452;2023-05-10T13:22:05;27.10;77.90
25332;DHT22;13284;52.748;13.452;2023-05-10T13:24:30;27.30;77.00
25332;DHT22;13284;52.748;13.452;2023-05-10T13:26:56;27.10;76.60
25332;DHT22;13284;52.748;13.452;2023-05-10T13:29:22;26.80;77.20
25332;DHT22;13284;52.748;13.452;2023-05-10T13:31:47;26.60;76.80
25332;DHT22;13284;52.748;13.452;2023-05-10T13:34:13;26.70;77.40
25332;DHT22;13284;52.748;13.452;2023-05-10T13:36:39;27.00;77.50
25332;DHT22;13284;52.748;13.452;2023-05-10T13:39:04;27.30;75.00
25332;DHT22;13284;52.748;13.452;2023-05-10T13:41:30;26.70;76.00
25332;DHT22;13284;52.748;13.452;2023-05-10T13:43:56;26.40;76.40
25332;DHT22;13284;52.748;13.452;2023-05-10T13:46:21;26.80;76.90
25332;DHT22;13284;52.748;13.452;2023-05-10T13:48:47;26.80;74.80
25332;DHT22;13284;52.748;13.452;2023-05-10T13:51:12;26.80;75.90
25332;DHT22;13284;52.748;13.452;2023-05-10T13:53:38;26.60;75.90
25332;DHT22;13284;52.748;13.452;2023-05-10T13:56:04;26.40;77.60
25332;DHT22;13284;52.748;13.452;2023-05-10T13:58:29;26.60;77.30
25332;DHT22;13284;52.748;13.452;2023-05-10T14:00:56;26.50;78.10
25332;DHT22;13284;52.748;13.452;2023-05-10T14:03:22;26.50;75.20
25332;DHT22;13284;52.748;13.452;2023-05-10T14:05:47;26.80;76.00
25332;DHT22;13284;52.748;13.452;2023-05-10T14:08:13;26.70;75.30
25332;DHT22;13284;52.748;13.452;2023-05-10T14:10:38;26.30;75.30
25332;DHT22;13284;52.748;13.452;2023-05-10T14:13:04;26.40;75.10
25332;DHT22;13284;52.748;13.452;2023-05-10T14:15:30;26.30;75.10
25332;DHT22;13284;52.748;13.452;2023-05-10T14:17:55;26.50;75.70
25332;DHT22;13284;52.748;13.452;2023-05-10T14:20:21;26.60;75.60
25332;DHT22;13284;52.748;13.452;2023-05-10T14:22:46;26.50;75.20
25332;DHT22;13284;52.748;13.452;2023-05-10T14:25:13;26.50;74.20
25332;DHT22;13284;52.748;13.452;2023-05-10T14:27:38;26.30;73.80
25332;DHT22;13284;52.748;13.452;2023-05-10T14:30:04;26.50;73.50
25332;DHT22;13284;52.748;13.452;2023-05-10T14:32:30;26.40;75.40
25332;DHT22;13284;52.748;13.452;2023-05-10T14:34:57;26.40;75.10
25332;DHT22;13284;52.748;13.452;2023-05-10T14:37:22;26.50;73.70
25332;DHT22;13284;52.748;13.452;2023-05-10T14:39:48;26.60;73.20
25332;DHT22;13284;52.748;13.452;2023-05-10T14:42:13;26.60;73.10
25332;DHT22;13284;52.748;13.452;2023-05-10T14:44:39;26.40;71.80
25332;DHT22;13284;52.748;13.452;2023-05-10T14:47:04;26.50;72.40
25332;DHT22;13284;52.748;13.452;2023-05-10T14:49:30;26.10;73.90
25332;DHT22;13284;52.748;13.452;2023-05-10T14:51:56;26.20;72.00
25332;DHT22;13284;52.748;13.452;2023-05-10T14:54:21;26.40;72.20
25332;DHT22;13284;52.748;13.452;2023-05-10T14:56:47;26.40;71.50
25332;DHT22;13284;52.748;13.452;2023-05-10T14:59:15;25.90;71.00
25332;DHT22;13284;52.748;13.452;2023-05-10T15:01:40;25.80;74.00
25332;DHT22;13284;52.748;13.452;2023-05-10T15:04:07;26.20;72.80
25332;DHT22;13284;52.748;13.452;2023-05-10T15:06:34;26.30;73.20
25332;DHT22;13284;52.748;13.452;2023-05-10T15:09:01;26.30;72.30
25332;DHT22;13284;52.748;13.452;2023-05-10T15:11:27;26.30;70.70
25332;DHT22;13284;52.748;13.452;2023-05-10T15:13:52;26.10;71.60
25332;DHT22;13284;52.748;13.452;2023-05-10T15:16:18;26.40;73.80
25332;DHT22;13284;52.748;13.452;2023-05-10T15:18:44;26.30;72.30
25332;DHT22;13284;52.748;13.452;2023-05-10T15:21:10;26.10;69.00
25332;DHT22;13284;52.748;13.452;2023-05-10T15:23:35;25.60;71.00
25332;DHT22;13284;52.748;13.452;2023-05-10T15:26:01;25.30;71.80
25332;DHT22;13284;52.748;13.452;2023-05-10T15:28:28;25.30;72.00
25332;DHT22;13284;52.748;13.452;2023-05-10T15:30:53;25.20;72.00
25332;DHT22;13284;52.748;13.452;2023-05-10T15:33:19;25.30;73.80
25332;DHT22;13284;52.748;13.452;2023-05-10T15:35:44;25.20;72.90
25332;DHT22;13284;52.748;13.452;2023-05-10T15:38:10;25.10;72.40
25332;DHT22;13284;52.748;13.452;2023-05-10T15:40:35;25.20;72.40